Time;durP1;ratioP1;P1;durP2;ratioP2;P2;SDS_P1;SDS_P2;PMS_P1;PMS_P2;Temp;Humidity;BMP_temperature;BMP_pressure;BME280_temperature;BME280_humidity;BME280_pressure;Samples;Min_cycle;Max_cycle;Signal;HPM_P1;HPM_P2
2021/04/29 00:00:14;;;;;;;20.17;11.17;;;12.00;81.60;;;;;;4957317;28;20538;-91
2021/04/29 00:02:39;;;;;;;17.97;9.53;;;12.00;81.70;;;;;;4956943;28;20421;-92
2021/04/29 00:05:07;;;;;;;23.07;10.20;;;11.90;81.80;;;;;;4957618;28;20422;-91
2021/04/29 00:07:33;;;;;;;23.00;11.17;;;11.90;81.80;;;;;;4957001;28;20203;-90
2021/04/29 00:09:58;;;;;;;18.73;9.17;;;11.90;82.00;;;;;;4960208;28;20453;-92
2021/04/29 00:12:24;;;;;;;18.80;10.40;;;11.90;82.30;;;;;;4965498;28;20183;-91
2021/04/29 00:14:49;;;;;;;18.37;10.10;;;11.90;82.30;;;;;;4957495;28;20175;-90
2021/04/29 00:17:15;;;;;;;19.93;10.20;;;11.80;82.60;;;;;;4974544;28;20197;-91
2021/04/29 00:19:42;;;;;;;18.10;10.33;;;11.80;82.90;;;;;;4957362;28;20652;-91
2021/04/29 00:22:08;;;;;;;19.93;10.73;;;11.70;83.10;;;;;;4957254;28;20189;-91
2021/04/29 00:24:33;;;;;;;20.03;10.27;;;11.70;83.30;;;;;;4957254;28;20434;-91
2021/04/29 00:26:59;;;;;;;19.27;9.97;;;11.70;83.60;;;;;;4957502;28;20214;-91
2021/04/29 00:29:24;;;;;;;20.27;10.00;;;11.70;83.60;;;;;;4956571;28;20210;-90
2021/04/29 00:31:50;;;;;;;15.17;10.33;;;11.60;83.70;;;;;;4956829;28;20626;-90
2021/04/29 00:34:15;;;;;;;22.40;10.80;;;11.60;83.70;;;;;;4956060;28;20265;-91
2021/04/29 00:36:44;;;;;;;18.10;10.43;;;11.60;83.80;;;;;;4973857;28;20182;-90
2021/04/29 00:39:09;;;;;;;19.90;9.70;;;11.60;84.20;;;;;;4955992;28;20206;-91
2021/04/29 00:41:35;;;;;;;19.70;11.20;;;11.60;84.00;;;;;;4956293;28;20423;-91
2021/04/29 00:44:01;;;;;;;18.37;10.20;;;11.60;84.10;;;;;;4956071;28;20566;-92
2021/04/29 00:46:28;;;;;;;19.87;10.60;;;11.60;84.30;;;;;;4955804;28;20812;-92
2021/04/29 00:48:53;;;;;;;18.27;10.67;;;11.60;84.40;;;;;;4955786;28;20233;-90
2021/04/29 00:51:20;;;;;;;21.47;11.20;;;11.60;84.50;;;;;;4956281;28;20806;-91
2021/04/29 00:53:47;;;;;;;18.70;10.47;;;11.60;84.80;;;;;;4956131;28;20170;-91
2021/04/29 00:56:13;;;;;;;23.00;11.23;;;11.60;85.30;;;;;;4956077;28;20508;-91
2021/04/29 00:58:39;;;;;;;23.73;12.00;;;11.60;85.30;;;;;;4956039;28;20473;-87
2021/04/29 01:01:06;;;;;;;22.33;11.77;;;11.50;85.40;;;;;;4954752;28;20649;-90
2021/04/29 01:03:40;;;;;;;17.27;10.93;;;11.50;85.70;;;;;;4955017;28;20688;-91
2021/04/29 01:06:11;;;;;;;21.97;11.27;;;11.50;85.80;;;;;;4954641;28;20418;-91
2021/04/29 01:08:53;;;;;;;24.47;11.50;;;11.50;86.40;;;;;;4971552;28;20461;-90
2021/04/29 01:11:24;;;;;;;16.60;10.57;;;11.50;86.50;;;;;;4954978;28;20941;-91
2021/04/29 01:13:56;;;;;;;18.00;10.37;;;11.50;86.60;;;;;;4957616;28;20429;-91
2021/04/29 01:16:24;;;;;;;22.20;10.70;;;11.50;86.80;;;;;;4958899;28;20543;-91
2021/04/29 01:18:53;;;;;;;24.50;11.57;;;11.40;87.10;;;;;;4959089;28;20478;-91
2021/04/29 01:21:20;;;;;;;20.33;11.10;;;11.40;87.20;;;;;;4959224;28;20418;-91
2021/04/29 01:24:01;;;;;;;19.13;10.67;;;11.40;87.30;;;;;;4958582;28;20425;-90
2021/04/29 01:26:30;;;;;;;19.30;10.70;;;11.40;87.50;;;;;;4958739;28;20496;-90
2021/04/29 01:28:57;;;;;;;20.20;11.77;;;11.40;87.60;;;;;;4958789;28;20569;-90
2021/04/29 01:31:29;;;;;;;18.20;11.00;;;11.40;87.80;;;;;;4958436;28;20414;-91
2021/04/29 01:33:57;;;;;;;19.10;11.67;;;11.40;87.90;;;;;;4958628;28;20481;-91
2021/04/29 01:36:23;;;;;;;17.83;9.93;;;11.40;88.20;;;;;;4976973;28;20413;-91
2021/04/29 01:38:49;;;;;;;16.70;10.00;;;11.40;88.20;;;;;;4959430;28;20530;-92
2021/04/29 01:41:14;;;;;;;19.77;10.47;;;11.30;88.70;;;;;;4960071;28;20424;-91
2021/04/29 01:43:41;;;;;;;26.17;12.30;;;11.30;88.90;;;;;;4960027;28;20183;-91
2021/04/29 01:46:09;;;;;;;25.27;11.13;;;11.30;88.90;;;;;;4959896;28;20253;-92
2021/04/29 01:48:35;;;;;;;20.93;12.10;;;11.30;89.70;;;;;;4959667;28;20523;-91
2021/04/29 01:51:01;;;;;;;20.47;11.77;;;11.20;90.00;;;;;;4960168;28;20422;-91
2021/04/29 01:53:27;;;;;;;22.43;12.20;;;11.10;90.40;;;;;;4960190;28;20175;-91
2021/04/29 01:55:54;;;;;;;25.10;12.57;;;11.10;90.60;;;;;;4959802;28;20410;-91
2021/04/29 01:58:21;;;;;;;17.80;11.50;;;11.00;90.60;;;;;;4959598;28;20480;-93
2021/04/29 02:00:47;;;;;;;22.67;12.60;;;11.00;90.70;;;;;;4960166;28;20433;-90
2021/04/29 02:03:13;;;;;;;21.37;11.27;;;11.00;91.00;;;;;;4959507;28;20792;-91
2021/04/29 02:05:39;;;;;;;21.70;12.10;;;11.00;91.00;;;;;;4958398;28;20178;-91
2021/04/29 02:23:24;;;;;;;22.60;12.33;;;10.80;93.10;;;;;;4973492;28;20850;-91
2021/04/29 02:25:55;;;;;;;19.77;12.43;;;10.80;92.90;;;;;;4957243;28;20422;-91
2021/04/29 02:41:11;;;;;;;19.40;12.80;;;10.70;93.70;;;;;;4972154;28;20888;-88
2021/04/29 02:43:38;;;;;;;20.73;12.80;;;10.60;93.80;;;;;;4956458;28;20418;-87
2021/04/29 02:46:04;;;;;;;22.60;12.73;;;10.60;94.30;;;;;;4956948;28;20233;-88
2021/04/29 02:48:30;;;;;;;25.83;12.87;;;10.60;94.50;;;;;;4956410;28;20833;-88
2021/04/29 02:50:59;;;;;;;20.80;12.40;;;10.60;94.50;;;;;;4956991;28;20181;-88
2021/04/29 02:53:24;;;;;;;21.73;12.20;;;10.50;94.90;;;;;;4957742;28;20282;-87
2021/04/29 02:55:52;;;;;;;20.63;12.70;;;10.40;95.50;;;;;;4974178;28;20458;-89
2021/04/29 02:58:18;;;;;;;25.20;12.50;;;10.30;96.00;;;;;;4956526;28;20202;-87
2021/04/29 03:00:45;;;;;;;17.90;11.40;;;10.30;97.00;;;;;;4956768;28;20484;-88
2021/04/29 03:03:12;;;;;;;21.40;10.90;;;10.20;97.30;;;;;;4956563;28;20186;-88
2021/04/29 03:05:41;;;;;;;17.93;11.60;;;10.20;97.30;;;;;;4956388;28;20429;-88
2021/04/29 03:08:08;;;;;;;21.17;12.07;;;10.10;97.30;;;;;;4956933;28;20438;-89
2021/04/29 03:10:34;;;;;;;27.93;14.03;;;10.10;97.30;;;;;;4958816;28;20418;-88
2021/04/29 03:12:59;;;;;;;22.10;13.17;;;10.00;97.30;;;;;;4958608;28;20449;-90
2021/04/29 03:15:25;;;;;;;22.97;12.93;;;10.00;97.30;;;;;;4959600;28;20189;-89
2021/04/29 03:17:51;;;;;;;28.53;14.80;;;10.00;97.30;;;;;;4962636;28;20221;-89
2021/04/29 03:20:17;;;;;;;28.93;15.17;;;9.90;97.30;;;;;;4966024;28;20701;-89
2021/04/29 03:22:42;;;;;;;24.90;14.70;;;9.90;97.30;;;;;;4966226;28;20179;-89
2021/04/29 03:25:09;;;;;;;27.87;14.90;;;9.90;97.30;;;;;;4965281;28;20422;-89
2021/04/29 03:27:34;;;;;;;28.20;15.77;;;9.90;97.30;;;;;;4966114;28;20218;-90
2021/04/29 03:30:00;;;;;;;32.43;15.47;;;9.90;97.30;;;;;;4965631;28;20461;-90
2021/04/29 03:32:26;;;;;;;32.00;15.83;;;10.00;97.30;;;;;;4964651;28;20218;-89
2021/04/29 03:34:52;;;;;;;29.50;16.57;;;10.00;97.30;;;;;;4948063;28;20274;-90
2021/04/29 03:37:18;;;;;;;32.17;16.57;;;9.90;97.30;;;;;;4962195;28;20448;-90
2021/04/29 03:39:44;;;;;;;34.43;17.33;;;9.90;97.30;;;;;;4962605;28;20238;-89
2021/04/29 03:42:13;;;;;;;32.37;17.60;;;9.90;97.30;;;;;;4961274;28;20183;-89
2021/04/29 03:44:39;;;;;;;32.20;17.00;;;9.90;97.30;;;;;;4977120;28;20422;-88
2021/04/29 03:47:05;;;;;;;33.00;16.97;;;10.00;97.30;;;;;;4961446;28;20496;-88
2021/04/29 03:49:32;;;;;;;34.73;19.07;;;10.00;97.30;;;;;;4960682;28;20468;-89
2021/04/29 03:51:58;;;;;;;30.03;18.77;;;10.00;97.30;;;;;;4959274;28;20429;-89
2021/04/29 03:54:23;;;;;;;32.43;18.90;;;10.10;97.30;;;;;;4961224;28;20415;-89
2021/04/29 03:56:50;;;;;;;35.63;18.60;;;10.10;97.30;;;;;;4960253;28;20420;-89
2021/04/29 03:59:15;;;;;;;32.80;19.13;;;10.10;97.30;;;;;;4960085;28;20199;-88
2021/04/29 04:01:41;;;;;;;37.60;19.97;;;10.20;97.30;;;;;;4960155;28;20410;-89
2021/04/29 04:04:07;;;;;;;35.17;19.47;;;10.20;97.30;;;;;;4960386;28;20209;-89
2021/04/29 04:06:32;;;;;;;37.33;19.73;;;10.20;97.30;;;;;;4960925;28;20182;-88
2021/04/29 04:08:57;;;;;;;38.77;20.60;;;10.20;97.30;;;;;;4958009;28;20207;-88
2021/04/29 04:11:23;;;;;;;34.33;18.83;;;10.30;97.30;;;;;;4957632;28;20241;-88
2021/04/29 04:13:49;;;;;;;35.07;21.00;;;10.30;97.30;;;;;;4957906;28;20193;-88
2021/04/29 04:16:15;;;;;;;40.20;20.63;;;10.30;97.30;;;;;;4958017;28;20197;-88
2021/04/29 04:18:44;;;;;;;33.43;19.90;;;10.30;97.30;;;;;;4958256;28;20446;-88
2021/04/29 04:21:12;;;;;;;39.33;20.23;;;10.30;97.30;;;;;;4975259;28;20410;-88
2021/04/29 04:23:38;;;;;;;34.17;19.70;;;10.30;97.30;;;;;;4958051;28;20496;-87
2021/04/29 04:26:03;;;;;;;32.73;18.83;;;10.20;97.30;;;;;;4957642;28;20913;-88
2021/04/29 04:28:29;;;;;;;36.93;21.30;;;10.20;97.30;;;;;;4957905;28;20202;-88
2021/04/29 04:30:55;;;;;;;42.00;21.53;;;10.20;97.30;;;;;;4957978;28;20537;-88
2021/04/29 04:33:21;;;;;;;36.83;21.10;;;10.20;97.30;;;;;;4975872;28;20186;-88
2021/04/29 04:35:47;;;;;;;37.50;19.57;;;10.10;97.30;;;;;;4958944;28;20476;-88
2021/04/29 04:38:12;;;;;;;36.33;22.47;;;10.10;97.30;;;;;;4958642;28;20609;-88
2021/04/29 04:40:38;;;;;;;37.00;21.20;;;10.10;97.30;;;;;;4975639;28;20233;-88
2021/04/29 04:43:04;;;;;;;37.17;21.20;;;10.10;97.30;;;;;;4958319;28;20694;-88
2021/04/29 04:45:30;;;;;;;35.43;20.77;;;10.10;97.30;;;;;;4958410;28;20214;-88
2021/04/29 04:47:56;;;;;;;36.53;20.83;;;10.10;97.30;;;;;;4961159;28;20213;-88
2021/04/29 04:50:22;;;;;;;36.20;21.43;;;10.10;97.30;;;;;;4962404;28;20268;-88
2021/04/29 04:52:48;;;;;;;36.97;20.97;;;10.10;97.30;;;;;;4961982;28;20414;-88
2021/04/29 04:55:13;;;;;;;40.10;20.97;;;10.00;97.30;;;;;;4962427;28;20425;-89
2021/04/29 04:57:39;;;;;;;34.17;20.63;;;10.00;97.30;;;;;;4962610;28;20202;-88
2021/04/29 05:00:05;;;;;;;39.77;20.80;;;10.00;97.30;;;;;;4961697;28;20210;-88
2021/04/29 05:02:33;;;;;;;45.13;22.13;;;10.00;97.30;;;;;;4960140;28;20232;-88
2021/04/29 05:05:02;;;;;;;36.53;20.43;;;9.90;97.30;;;;;;4961062;28;20429;-88
2021/04/29 05:07:33;;;;;;;41.27;22.17;;;9.90;97.30;;;;;;4961128;28;20457;-88
2021/04/29 05:09:58;;;;;;;37.07;21.53;;;9.90;97.30;;;;;;4961629;28;20457;-88
2021/04/29 05:12:24;;;;;;;41.90;21.57;;;9.90;97.30;;;;;;4961379;28;20449;-88
2021/04/29 05:17:53;;;;;;;45.67;21.80;;;10.00;97.30;;;;;;4979814;23;20309;-77
2021/04/29 05:20:18;;;;;;;42.87;22.17;;;10.00;97.30;;;;;;4955025;29;20406;-77
2021/04/29 05:22:46;;;;;;;46.97;23.40;;;10.00;97.30;;;;;;4938960;29;20187;-77
2021/04/29 05:25:11;;;;;;;40.80;20.60;;;10.10;97.30;;;;;;4938828;29;20207;-77
2021/04/29 05:27:37;;;;;;;45.23;22.30;;;10.10;97.30;;;;;;4938966;29;20411;-77
2021/04/29 05:30:04;;;;;;;41.50;21.33;;;10.10;97.30;;;;;;4938858;29;20226;-77
2021/04/29 05:32:30;;;;;;;43.77;22.07;;;10.20;97.30;;;;;;4955604;29;20211;-77
2021/04/29 05:34:56;;;;;;;38.70;21.23;;;10.20;97.30;;;;;;4938664;29;20469;-77
2021/04/29 05:37:22;;;;;;;45.57;24.03;;;10.20;97.30;;;;;;4938862;29;20225;-76
2021/04/29 05:39:47;;;;;;;37.40;20.90;;;10.30;97.30;;;;;;4955670;29;20419;-77
2021/04/29 05:42:13;;;;;;;38.87;19.93;;;10.30;97.30;;;;;;4938277;29;20297;-76
2021/04/29 05:44:38;;;;;;;40.93;21.70;;;10.30;97.30;;;;;;4938750;29;20175;-77
2021/04/29 05:47:04;;;;;;;38.70;20.30;;;10.40;97.30;;;;;;4944142;28;20183;-77
2021/04/29 05:49:30;;;;;;;39.50;20.10;;;10.40;97.30;;;;;;4957544;28;20205;-77
2021/04/29 05:51:55;;;;;;;53.53;21.60;;;10.50;97.30;;;;;;4957568;28;20293;-77
2021/04/29 05:54:21;;;;;;;34.40;20.37;;;10.50;97.30;;;;;;4957107;28;20206;-77
2021/04/29 05:56:46;;;;;;;43.00;19.23;;;10.60;97.30;;;;;;4957563;28;20646;-77
2021/04/29 05:59:12;;;;;;;37.20;21.47;;;10.70;97.30;;;;;;4956364;28;20644;-76
2021/04/29 06:01:37;;;;;;;42.40;20.03;;;10.70;97.30;;;;;;4957071;28;20253;-77
2021/04/29 06:04:03;;;;;;;38.70;21.40;;;10.80;97.30;;;;;;4957629;28;20460;-77
2021/04/29 06:06:29;;;;;;;36.60;19.43;;;10.90;97.30;;;;;;4957425;28;20182;-77
2021/04/29 06:08:54;;;;;;;41.30;21.07;;;11.00;97.30;;;;;;4956846;28;20630;-77
2021/04/29 06:11:20;;;;;;;34.77;19.47;;;11.10;97.30;;;;;;4974442;28;20456;-77
2021/04/29 06:13:45;;;;;;;40.53;20.50;;;11.10;97.30;;;;;;4957277;28;20265;-77
2021/04/29 06:16:13;;;;;;;33.43;18.03;;;11.20;97.30;;;;;;4956804;28;20175;-77
2021/04/29 06:18:39;;;;;;;35.40;20.20;;;11.20;97.30;;;;;;4957132;28;20736;-77
2021/04/29 06:21:05;;;;;;;38.27;18.50;;;11.30;97.30;;;;;;4956673;28;20483;-78
2021/04/29 06:23:33;;;;;;;35.57;19.07;;;11.40;97.30;;;;;;4974325;28;20437;-78
2021/04/29 06:25:59;;;;;;;37.80;17.23;;;11.50;97.30;;;;;;4957125;28;20277;-77
2021/04/29 06:28:24;;;;;;;31.67;17.13;;;11.60;97.30;;;;;;4957039;28;20442;-76
2021/04/29 06:30:50;;;;;;;28.57;16.63;;;11.70;97.30;;;;;;4956322;28;20442;-77
2021/04/29 06:33:16;;;;;;;32.67;18.10;;;11.80;97.30;;;;;;4957142;28;20183;-79
2021/04/29 06:35:41;;;;;;;33.80;17.63;;;11.80;97.30;;;;;;4956800;28;20606;-78
2021/04/29 06:38:07;;;;;;;25.67;15.00;;;11.80;97.30;;;;;;4956682;28;20194;-79
2021/04/29 06:40:33;;;;;;;29.20;17.00;;;11.90;97.30;;;;;;4957021;28;20171;-79
2021/04/29 06:42:58;;;;;;;26.73;16.70;;;12.00;97.30;;;;;;4956676;28;20185;-79
2021/04/29 06:45:24;;;;;;;35.87;19.53;;;12.00;97.30;;;;;;4974077;28;20237;-79
2021/04/29 06:47:49;;;;;;;28.20;17.33;;;12.10;97.30;;;;;;4962596;28;20186;-79
2021/04/29 06:50:15;;;;;;;26.57;16.00;;;12.10;97.30;;;;;;4936978;29;20215;-78
2021/04/29 06:52:42;;;;;;;26.47;16.20;;;12.10;97.30;;;;;;4937676;29;20183;-79
2021/04/29 06:55:08;;;;;;;29.40;16.27;;;12.10;97.30;;;;;;4955148;29;20175;-79
2021/04/29 06:57:33;;;;;;;27.50;16.43;;;12.10;97.30;;;;;;4937234;29;20415;-80
2021/04/29 06:59:59;;;;;;;28.83;16.93;;;12.00;97.30;;;;;;4955093;29;20418;-79
2021/04/29 07:02:25;;;;;;;27.73;16.20;;;12.00;97.30;;;;;;4937539;29;20230;-78
2021/04/29 07:04:50;;;;;;;30.90;16.03;;;12.00;97.30;;;;;;4936705;29;20183;-79
2021/04/29 07:07:16;;;;;;;27.60;15.80;;;12.10;97.30;;;;;;4937483;29;20215;-78
2021/04/29 07:09:41;;;;;;;36.10;18.83;;;12.10;97.30;;;;;;4937094;28;20218;-78
2021/04/29 07:12:07;;;;;;;28.30;16.83;;;12.20;97.30;;;;;;4937068;29;20199;-79
2021/04/29 07:14:33;;;;;;;29.90;16.47;;;12.20;97.30;;;;;;4937486;29;20189;-79
2021/04/29 07:16:58;;;;;;;30.17;17.10;;;12.20;97.30;;;;;;4937689;29;20473;-79
2021/04/29 07:19:24;;;;;;;35.43;19.20;;;12.30;97.30;;;;;;4953844;29;20731;-79
2021/04/29 07:21:52;;;;;;;31.70;16.73;;;12.30;97.30;;;;;;4937490;29;20195;-78
2021/04/29 07:24:18;;;;;;;24.70;13.70;;;12.20;97.30;;;;;;4937212;29;20179;-78
2021/04/29 07:26:43;;;;;;;27.57;16.30;;;12.20;97.30;;;;;;4936344;29;20433;-78
2021/04/29 07:29:09;;;;;;;27.33;15.60;;;12.20;97.30;;;;;;4937259;29;20468;-77
2021/04/29 07:31:35;;;;;;;31.83;16.87;;;12.20;97.30;;;;;;4936483;29;20199;-79
2021/04/29 07:34:00;;;;;;;33.13;17.67;;;12.30;97.30;;;;;;4936712;29;20179;-79
2021/04/29 07:36:26;;;;;;;24.70;16.47;;;12.40;97.30;;;;;;4954254;29;20199;-78
2021/04/29 07:38:51;;;;;;;28.30;17.80;;;12.50;97.30;;;;;;4936525;29;20187;-77
2021/04/29 07:41:21;;;;;;;25.50;16.30;;;12.50;97.30;;;;;;4936731;29;20258;-79
2021/04/29 07:43:47;;;;;;;26.40;16.50;;;12.50;97.30;;;;;;4937292;29;20645;-79
2021/04/29 07:46:13;;;;;;;27.03;16.07;;;12.60;97.30;;;;;;4937433;29;20510;-78
2021/04/29 07:48:38;;;;;;;26.67;15.77;;;12.60;97.30;;;;;;4972958;28;20213;-79
2021/04/29 07:51:04;;;;;;;24.80;15.40;;;12.50;97.30;;;;;;4957136;28;20203;-78
2021/04/29 07:53:30;;;;;;;23.53;16.20;;;12.50;97.30;;;;;;4956084;28;20210;-79
2021/04/29 07:55:55;;;;;;;30.53;17.70;;;12.60;97.30;;;;;;4956169;28;20182;-80
2021/04/29 07:58:23;;;;;;;22.50;15.00;;;12.80;97.30;;;;;;4957054;28;20178;-79
2021/04/29 08:00:49;;;;;;;26.87;15.80;;;12.90;97.30;;;;;;4955061;28;20268;-79
2021/04/29 08:03:14;;;;;;;20.80;13.50;;;13.00;97.30;;;;;;4955759;28;20917;-78
2021/04/29 08:05:40;;;;;;;24.43;14.00;;;12.90;97.30;;;;;;4955947;28;20430;-78
2021/04/29 08:08:05;;;;;;;21.03;13.57;;;13.00;97.30;;;;;;4954963;28;20174;-79
2021/04/29 08:10:31;;;;;;;20.93;12.77;;;13.10;97.30;;;;;;4955188;28;20210;-80
2021/04/29 08:12:57;;;;;;;22.60;13.10;;;13.20;97.30;;;;;;4973415;28;20162;-79
2021/04/29 08:15:23;;;;;;;20.23;11.90;;;13.10;97.30;;;;;;4954940;28;20827;-78
2021/04/29 08:17:48;;;;;;;20.53;12.93;;;13.00;97.30;;;;;;4954822;28;20785;-78
2021/04/29 08:20:14;;;;;;;21.00;11.80;;;13.00;97.30;;;;;;4955511;28;20179;-78
2021/04/29 08:22:40;;;;;;;15.67;10.27;;;13.10;97.30;;;;;;4971787;28;20197;-77
2021/04/29 08:25:06;;;;;;;15.13;10.73;;;13.20;97.30;;;;;;4955240;28;20410;-78
2021/04/29 08:27:32;;;;;;;14.50;9.37;;;13.40;97.30;;;;;;4955523;28;20189;-77
2021/04/29 08:29:58;;;;;;;13.20;9.17;;;13.30;97.30;;;;;;4955111;28;20454;-79
2021/04/29 08:32:23;;;;;;;16.57;9.10;;;13.30;97.30;;;;;;4955765;28;20198;-80
2021/04/29 08:34:49;;;;;;;15.40;9.90;;;13.30;97.30;;;;;;4955078;28;20914;-80
2021/04/29 08:37:16;;;;;;;17.33;10.23;;;13.40;97.30;;;;;;4954745;28;20183;-77
2021/04/29 08:39:42;;;;;;;14.00;10.20;;;13.70;97.30;;;;;;4955332;28;20229;-77
2021/04/29 08:42:11;;;;;;;16.43;9.30;;;13.80;97.30;;;;;;4955224;28;20817;-79
2021/04/29 08:44:38;;;;;;;14.83;10.77;;;14.00;97.30;;;;;;4954911;28;20189;-77
2021/04/29 08:47:03;;;;;;;15.30;10.20;;;14.10;97.30;;;;;;4949354;29;20433;-77
2021/04/29 08:49:30;;;;;;;18.37;11.90;;;14.20;97.30;;;;;;4935716;29;20462;-78
2021/04/29 08:51:56;;;;;;;17.87;12.87;;;14.20;97.30;;;;;;4935782;29;20667;-78
2021/04/29 08:54:22;;;;;;;18.03;12.50;;;14.30;97.30;;;;;;4956270;23;20492;-78
2021/04/29 08:56:48;;;;;;;17.77;11.47;;;14.20;97.30;;;;;;4955252;28;20410;-76
2021/04/29 08:59:13;;;;;;;18.47;11.87;;;14.00;97.30;;;;;;4955532;28;20183;-78
2021/04/29 09:01:44;;;;;;;22.80;11.10;;;13.90;97.30;;;;;;4957219;28;20441;-78
2021/04/29 09:04:17;;;;;;;14.77;11.33;;;14.00;97.30;;;;;;4973078;28;20159;-77
2021/04/29 09:06:47;;;;;;;19.03;10.90;;;14.30;97.30;;;;;;4954265;28;20448;-77
2021/04/29 09:09:14;;;;;;;17.73;12.43;;;14.70;97.30;;;;;;4954879;28;20452;-77
2021/04/29 09:11:50;;;;;;;16.47;11.57;;;15.00;97.30;;;;;;4955033;28;20508;-78
2021/04/29 09:14:29;;;;;;;16.60;10.93;;;15.20;97.30;;;;;;4954503;28;20504;-75
2021/04/29 09:16:54;;;;;;;16.63;11.27;;;15.40;96.80;;;;;;4955353;28;20505;-78
2021/04/29 09:19:21;;;;;;;16.60;10.63;;;15.40;97.10;;;;;;4954631;28;21013;-76
2021/04/29 09:21:47;;;;;;;15.80;10.53;;;15.50;96.80;;;;;;4954137;28;20229;-77
2021/04/29 09:24:13;;;;;;;14.20;9.80;;;15.40;96.30;;;;;;4956217;28;20461;-79
2021/04/29 09:26:40;;;;;;;16.77;10.90;;;15.20;95.30;;;;;;4955422;28;20611;-78
2021/04/29 09:29:08;;;;;;;14.63;10.40;;;15.00;96.70;;;;;;4954019;28;20524;-77
2021/04/29 09:31:39;;;;;;;15.10;9.43;;;14.80;96.20;;;;;;4955638;28;20442;-76
2021/04/29 09:34:05;;;;;;;17.53;10.50;;;14.60;96.60;;;;;;4956110;28;20409;-78
2021/04/29 09:36:43;;;;;;;13.00;10.33;;;14.60;96.70;;;;;;4975163;28;20418;-77
2021/04/29 09:39:17;;;;;;;15.23;10.40;;;14.80;96.20;;;;;;4958951;28;20421;-78
2021/04/29 09:41:46;;;;;;;13.13;10.10;;;15.00;96.10;;;;;;4975319;28;20436;-78
2021/04/29 09:44:14;;;;;;;17.00;11.10;;;15.30;95.30;;;;;;4957875;28;20893;-77
2021/04/29 09:46:42;;;;;;;13.37;10.00;;;15.40;94.00;;;;;;4958300;28;20449;-77
2021/04/29 09:49:18;;;;;;;14.13;9.80;;;15.30;93.90;;;;;;4957615;28;20540;-77
2021/04/29 09:51:44;;;;;;;16.20;10.47;;;15.40;94.20;;;;;;4957791;28;20441;-77
2021/04/29 09:54:10;;;;;;;15.63;10.67;;;15.40;93.80;;;;;;4958401;28;20626;-77
2021/04/29 09:56:37;;;;;;;19.07;10.40;;;15.70;93.10;;;;;;4957452;28;20645;-76
2021/04/29 09:59:03;;;;;;;14.40;10.67;;;16.00;92.50;;;;;;4957557;28;20964;-78
2021/04/29 10:01:30;;;;;;;14.60;10.30;;;16.20;92.50;;;;;;4958407;28;20438;-77
2021/04/29 10:03:57;;;;;;;12.47;9.53;;;16.40;91.00;;;;;;4974563;28;20179;-78
2021/04/29 10:06:23;;;;;;;15.53;9.70;;;16.50;90.90;;;;;;4957978;28;20436;-76
2021/04/29 10:08:52;;;;;;;12.90;8.57;;;16.60;90.30;;;;;;4975537;28;20454;-75
2021/04/29 10:11:25;;;;;;;13.00;8.93;;;16.70;89.30;;;;;;4956996;28;20964;-77
2021/04/29 10:13:54;;;;;;;16.23;10.13;;;16.90;89.40;;;;;;4975095;28;20442;-77
2021/04/29 10:16:22;;;;;;;13.33;9.13;;;16.90;88.40;;;;;;4957658;28;20505;-77
2021/04/29 10:18:49;;;;;;;13.73;9.50;;;17.00;88.60;;;;;;4956973;28;20944;-77
2021/04/29 10:21:18;;;;;;;14.60;10.40;;;16.90;87.80;;;;;;4957867;28;20461;-75
2021/04/29 10:23:45;;;;;;;12.03;9.20;;;16.70;88.20;;;;;;4974980;28;20405;-77
2021/04/29 10:26:11;;;;;;;12.03;10.30;;;16.40;88.70;;;;;;4956868;28;20418;-78
2021/04/29 10:28:37;;;;;;;17.67;11.30;;;16.20;89.70;;;;;;4957159;28;20523;-77
2021/04/29 10:31:17;;;;;;;18.20;11.77;;;16.40;90.30;;;;;;4958534;28;20302;-77
2021/04/29 10:33:53;;;;;;;15.70;10.27;;;16.50;89.10;;;;;;4974952;28;20402;-77
2021/04/29 10:36:20;;;;;;;20.70;10.20;;;16.50;88.60;;;;;;4959215;28;20501;-79
2021/04/29 10:38:46;;;;;;;13.87;9.63;;;16.70;89.70;;;;;;4975988;28;20916;-78
2021/04/29 10:41:20;;;;;;;15.63;11.10;;;16.70;89.80;;;;;;4958315;28;20497;-78
2021/04/29 10:43:47;;;;;;;16.27;10.20;;;16.60;88.70;;;;;;4958025;28;20270;-78
2021/04/29 10:46:26;;;;;;;18.40;10.87;;;16.40;89.70;;;;;;4977125;28;20896;-78
2021/04/29 10:48:52;;;;;;;15.23;10.37;;;16.20;89.90;;;;;;4938562;29;21043;-77
2021/04/29 10:51:27;;;;;;;11.40;9.40;;;16.10;89.60;;;;;;4938736;29;20439;-77
2021/04/29 10:53:53;;;;;;;14.63;10.43;;;16.40;90.20;;;;;;4936888;29;20474;-76
2021/04/29 10:56:19;;;;;;;14.33;9.70;;;16.90;89.90;;;;;;4937624;29;20435;-78
2021/04/29 10:58:45;;;;;;;11.37;9.63;;;17.10;88.00;;;;;;4938112;29;20266;-77
2021/04/29 11:01:13;;;;;;;14.30;9.83;;;17.20;88.70;;;;;;4937395;29;20458;-78
2021/04/29 11:03:41;;;;;;;15.53;11.13;;;17.60;87.60;;;;;;4937552;29;21171;-78
2021/04/29 11:06:10;;;;;;;15.43;11.27;;;17.40;86.00;;;;;;4938521;29;20423;-77
2021/04/29 11:08:38;;;;;;;14.57;10.70;;;17.00;86.50;;;;;;4936882;29;20442;-77
2021/04/29 11:11:05;;;;;;;16.00;11.07;;;16.70;86.70;;;;;;4937238;29;20474;-78
2021/04/29 11:13:30;;;;;;;20.17;11.63;;;16.30;87.80;;;;;;4937791;29;20949;-76
2021/04/29 11:15:58;;;;;;;12.97;10.07;;;16.20;88.50;;;;;;4936843;29;20423;-78
2021/04/29 11:18:23;;;;;;;18.67;10.53;;;16.30;88.90;;;;;;4937594;29;20643;-78
2021/04/29 11:20:52;;;;;;;15.60;10.67;;;16.50;88.60;;;;;;4937592;29;20431;-78
2021/04/29 11:23:20;;;;;;;13.87;10.30;;;16.60;89.00;;;;;;4936791;29;20183;-76
2021/04/29 11:25:47;;;;;;;11.30;9.33;;;16.70;88.40;;;;;;4954330;29;20438;-77
2021/04/29 11:28:15;;;;;;;16.40;9.93;;;16.70;88.60;;;;;;4954471;29;20446;-77
2021/04/29 11:30:41;;;;;;;13.00;9.90;;;16.70;88.20;;;;;;4936351;29;20561;-77
2021/04/29 11:33:10;;;;;;;15.83;9.10;;;17.10;88.10;;;;;;4936756;29;20427;-77
2021/04/29 11:35:38;;;;;;;12.27;8.33;;;17.30;86.10;;;;;;4937228;29;20426;-77
2021/04/29 11:38:06;;;;;;;9.83;6.50;;;17.20;86.60;;;;;;4936483;29;20981;-77
2021/04/29 11:40:34;;;;;;;11.03;6.40;;;17.20;84.30;;;;;;4937184;29;20427;-78
2021/04/29 11:43:01;;;;;;;12.60;5.90;;;17.50;83.50;;;;;;4937739;29;20426;-77
2021/04/29 11:45:33;;;;;;;12.33;5.70;;;17.80;81.20;;;;;;4936403;29;20425;-76
2021/04/29 11:48:03;;;;;;;9.60;5.83;;;18.00;81.50;;;;;;4950375;28;20428;-77
2021/04/29 11:50:38;;;;;;;8.40;6.20;;;18.20;81.40;;;;;;4956152;28;20465;-76
2021/04/29 11:53:06;;;;;;;12.37;6.57;;;18.20;81.40;;;;;;4972777;28;20406;-78
2021/04/29 11:55:33;;;;;;;10.30;7.13;;;18.00;81.10;;;;;;4955986;28;20916;-77
2021/04/29 11:58:01;;;;;;;7.80;6.17;;;17.90;82.00;;;;;;4972953;28;20804;-76
2021/04/29 12:00:36;;;;;;;9.93;5.70;;;17.80;81.10;;;;;;4955323;28;20476;-76
2021/04/29 12:03:03;;;;;;;8.20;5.57;;;17.80;80.70;;;;;;4956420;28;20772;-79
2021/04/29 12:05:34;;;;;;;8.20;4.80;;;17.90;81.10;;;;;;4956897;28;20848;-79
2021/04/29 12:07:59;;;;;;;8.00;5.87;;;18.40;80.30;;;;;;4960056;28;20561;-78
2021/04/29 12:10:25;;;;;;;11.47;5.50;;;18.60;79.70;;;;;;4960845;28;20493;-77
2021/04/29 12:12:51;;;;;;;10.23;5.27;;;18.50;79.40;;;;;;4962353;28;20681;-79
2021/04/29 12:15:17;;;;;;;7.13;4.83;;;18.10;80.10;;;;;;4960141;28;20187;-79
2021/04/29 12:17:43;;;;;;;9.47;4.50;;;18.00;80.50;;;;;;4979374;28;20428;-80
2021/04/29 12:20:09;;;;;;;10.23;5.30;;;18.00;80.00;;;;;;4967924;28;20253;-79
2021/04/29 12:22:38;;;;;;;6.63;4.43;;;18.10;79.80;;;;;;4963354;28;20202;-80
2021/04/29 12:25:04;;;;;;;15.20;4.77;;;18.20;79.70;;;;;;4968198;28;20512;-79
2021/04/29 12:27:38;;;;;;;8.80;4.57;;;18.40;80.70;;;;;;4983526;28;20939;-79
2021/04/29 12:30:08;;;;;;;7.83;3.97;;;18.80;79.30;;;;;;4972393;28;20466;-78
2021/04/29 12:32:34;;;;;;;6.30;3.40;;;18.90;77.80;;;;;;4956794;28;20465;-78
2021/04/29 12:35:00;;;;;;;5.17;3.40;;;18.70;77.70;;;;;;4956324;28;20422;-78
2021/04/29 12:37:26;;;;;;;7.50;4.00;;;18.50;78.70;;;;;;4955004;28;20422;-78
2021/04/29 12:39:51;;;;;;;6.20;4.20;;;18.80;78.40;;;;;;4956133;28;20214;-78
2021/04/29 12:42:20;;;;;;;6.40;3.70;;;19.30;77.50;;;;;;4958599;28;20289;-79
2021/04/29 12:44:48;;;;;;;6.07;2.90;;;19.30;77.60;;;;;;4974775;28;20174;-78
2021/04/29 12:47:28;;;;;;;5.80;3.40;;;19.60;76.30;;;;;;4959764;28;20999;-80
2021/04/29 12:49:59;;;;;;;8.13;3.50;;;19.10;76.00;;;;;;4964160;28;20526;-80
2021/04/29 12:52:25;;;;;;;4.40;3.40;;;18.90;77.00;;;;;;4962424;28;20862;-80
2021/04/29 12:54:53;;;;;;;12.67;3.53;;;18.70;77.60;;;;;;4960053;28;20478;-76
2021/04/29 12:57:27;;;;;;;6.30;3.20;;;18.50;77.40;;;;;;4957617;28;20178;-79
2021/04/29 12:59:58;;;;;;;7.57;3.37;;;18.40;77.20;;;;;;4955197;28;20468;-78